sensor_id;sensor_type;location;lat;lon;timestamp;P1;durP1;ratioP1;P2;durP2;ratioP2
66523;SDS011;53350;52.210;5.160;2022-07-23T00:02:35;5.93;;;1.90;;
66523;SDS011;53350;52.210;5.160;2022-07-23T00:05:16;6.95;;;2.10;;
66523;SDS011;53350;52.210;5.160;2022-07-23T00:07:47;6.00;;;1.70;;
66523;SDS011;53350;52.210;5.160;2022-07-23T00:10:20;4.97;;;1.80;;
66523;SDS011;53350;52.210;5.160;2022-07-23T00:12:47;6.38;;;1.85;;
66523;SDS011;53350;52.210;5.160;2022-07-23T00:15:20;4.60;;;1.50;;
66523;SDS011;53350;52.210;5.160;2022-07-23T00:18:01;5.13;;;2.05;;
66523;SDS011;53350;52.210;5.160;2022-07-23T00:20:32;7.68;;;2.10;;
66523;SDS011;53350;52.210;5.160;2022-07-23T00:23:09;5.15;;;1.80;;
66523;SDS011;53350;52.210;5.160;2022-07-23T00:25:35;5.07;;;2.25;;
66523;SDS011;53350;52.210;5.160;2022-07-23T00:28:10;5.93;;;1.73;;
66523;SDS011;53350;52.210;5.160;2022-07-23T00:33:44;5.65;;;2.10;;
66523;SDS011;53350;52.210;5.160;2022-07-23T00:36:12;8.77;;;1.92;;
66523;SDS011;53350;52.210;5.160;2022-07-23T00:38:41;8.00;;;1.97;;
66523;SDS011;53350;52.210;5.160;2022-07-23T00:41:11;4.93;;;2.10;;
66523;SDS011;53350;52.210;5.160;2022-07-23T00:43:42;8.63;;;2.10;;
66523;SDS011;53350;52.210;5.160;2022-07-23T00:46:10;4.97;;;1.60;;
66523;SDS011;53350;52.210;5.160;2022-07-23T00:48:45;7.10;;;1.80;;
66523;SDS011;53350;52.210;5.160;2022-07-23T00:51:25;5.03;;;1.90;;
66523;SDS011;53350;52.210;5.160;2022-07-23T00:53:56;5.47;;;1.83;;
66523;SDS011;53350;52.210;5.160;2022-07-23T00:56:29;4.28;;;2.08;;
66523;SDS011;53350;52.210;5.160;2022-07-23T00:59:04;6.32;;;1.92;;
66523;SDS011;53350;52.210;5.160;2022-07-23T01:01:35;5.30;;;1.80;;
66523;SDS011;53350;52.210;5.160;2022-07-23T01:04:04;4.78;;;1.58;;
66523;SDS011;53350;52.210;5.160;2022-07-23T01:06:44;4.55;;;1.63;;
66523;SDS011;53350;52.210;5.160;2022-07-23T01:09:18;6.85;;;1.95;;
66523;SDS011;53350;52.210;5.160;2022-07-23T01:11:45;4.50;;;1.70;;
66523;SDS011;53350;52.210;5.160;2022-07-23T01:14:30;6.35;;;1.98;;
66523;SDS011;53350;52.210;5.160;2022-07-23T01:17:01;7.40;;;2.08;;
66523;SDS011;53350;52.210;5.160;2022-07-23T01:19:50;6.78;;;1.85;;
66523;SDS011;53350;52.210;5.160;2022-07-23T01:22:21;6.55;;;2.28;;
66523;SDS011;53350;52.210;5.160;2022-07-23T01:24:58;8.57;;;2.55;;
66523;SDS011;53350;52.210;5.160;2022-07-23T01:27:24;8.95;;;2.35;;
66523;SDS011;53350;52.210;5.160;2022-07-23T01:30:05;3.85;;;2.05;;
66523;SDS011;53350;52.210;5.160;2022-07-23T01:32:42;9.30;;;1.95;;
66523;SDS011;53350;52.210;5.160;2022-07-23T01:35:29;9.90;;;2.30;;
66523;SDS011;53350;52.210;5.160;2022-07-23T01:38:00;7.10;;;2.00;;
66523;SDS011;53350;52.210;5.160;2022-07-23T01:43:24;4.32;;;1.60;;
66523;SDS011;53350;52.210;5.160;2022-07-23T01:46:15;6.95;;;2.17;;
66523;SDS011;53350;52.210;5.160;2022-07-23T01:48:43;6.53;;;2.05;;
66523;SDS011;53350;52.210;5.160;2022-07-23T01:51:09;3.80;;;1.80;;
66523;SDS011;53350;52.210;5.160;2022-07-23T01:53:44;4.90;;;1.92;;
66523;SDS011;53350;52.210;5.160;2022-07-23T01:56:12;4.53;;;1.85;;
66523;SDS011;53350;52.210;5.160;2022-07-23T01:58:40;7.63;;;2.00;;
66523;SDS011;53350;52.210;5.160;2022-07-23T02:01:06;5.03;;;1.83;;
66523;SDS011;53350;52.210;5.160;2022-07-23T02:03:33;5.10;;;1.88;;
66523;SDS011;53350;52.210;5.160;2022-07-23T02:05:59;3.08;;;1.58;;
66523;SDS011;53350;52.210;5.160;2022-07-23T02:08:25;4.18;;;1.65;;
66523;SDS011;53350;52.210;5.160;2022-07-23T02:10:52;4.28;;;1.75;;
66523;SDS011;53350;52.210;5.160;2022-07-23T02:13:20;5.07;;;1.55;;
66523;SDS011;53350;52.210;5.160;2022-07-23T02:15:46;3.05;;;1.48;;
66523;SDS011;53350;52.210;5.160;2022-07-23T02:18:13;3.35;;;1.42;;
66523;SDS011;53350;52.210;5.160;2022-07-23T02:20:39;5.35;;;1.88;;
66523;SDS011;53350;52.210;5.160;2022-07-23T02:23:06;4.70;;;1.33;;
66523;SDS011;53350;52.210;5.160;2022-07-23T02:25:33;1.70;;;1.30;;
66523;SDS011;53350;52.210;5.160;2022-07-23T02:27:59;2.83;;;1.60;;
66523;SDS011;53350;52.210;5.160;2022-07-23T02:30:27;3.92;;;1.40;;
66523;SDS011;53350;52.210;5.160;2022-07-23T02:32:54;3.88;;;1.70;;
66523;SDS011;53350;52.210;5.160;2022-07-23T02:35:20;4.43;;;1.80;;
66523;SDS011;53350;52.210;5.160;2022-07-23T02:37:47;5.22;;;1.55;;
66523;SDS011;53350;52.210;5.160;2022-07-23T02:40:13;4.28;;;1.63;;
66523;SDS011;53350;52.210;5.160;2022-07-23T02:42:40;2.83;;;1.55;;
66523;SDS011;53350;52.210;5.160;2022-07-23T02:45:07;3.88;;;1.65;;
66523;SDS011;53350;52.210;5.160;2022-07-23T02:47:35;2.83;;;1.60;;
66523;SDS011;53350;52.210;5.160;2022-07-23T02:50:02;4.03;;;1.52;;
66523;SDS011;53350;52.210;5.160;2022-07-23T02:52:30;3.00;;;1.52;;
66523;SDS011;53350;52.210;5.160;2022-07-23T02:54:56;5.60;;;1.50;;
66523;SDS011;53350;52.210;5.160;2022-07-23T02:57:23;4.28;;;1.90;;
66523;SDS011;53350;52.210;5.160;2022-07-23T02:59:49;4.75;;;1.50;;
66523;SDS011;53350;52.210;5.160;2022-07-23T03:02:15;3.75;;;1.35;;
66523;SDS011;53350;52.210;5.160;2022-07-23T03:04:43;4.60;;;1.40;;
66523;SDS011;53350;52.210;5.160;2022-07-23T03:07:10;4.80;;;1.70;;
66523;SDS011;53350;52.210;5.160;2022-07-23T03:09:36;4.10;;;1.77;;
66523;SDS011;53350;52.210;5.160;2022-07-23T03:12:03;2.80;;;1.60;;
66523;SDS011;53350;52.210;5.160;2022-07-23T03:14:29;3.65;;;1.63;;
66523;SDS011;53350;52.210;5.160;2022-07-23T03:16:56;8.60;;;2.03;;
66523;SDS011;53350;52.210;5.160;2022-07-23T03:19:24;6.30;;;1.70;;
66523;SDS011;53350;52.210;5.160;2022-07-23T03:21:52;3.25;;;1.70;;
66523;SDS011;53350;52.210;5.160;2022-07-23T03:24:19;3.75;;;1.65;;
66523;SDS011;53350;52.210;5.160;2022-07-23T03:26:45;4.05;;;1.50;;
66523;SDS011;53350;52.210;5.160;2022-07-23T03:29:11;5.03;;;1.70;;
66523;SDS011;53350;52.210;5.160;2022-07-23T03:31:38;3.97;;;1.55;;
66523;SDS011;53350;52.210;5.160;2022-07-23T03:34:04;3.28;;;1.50;;
66523;SDS011;53350;52.210;5.160;2022-07-23T03:36:31;5.85;;;1.80;;
66523;SDS011;53350;52.210;5.160;2022-07-23T03:38:58;4.38;;;1.90;;
66523;SDS011;53350;52.210;5.160;2022-07-23T03:41:25;4.43;;;1.75;;
66523;SDS011;53350;52.210;5.160;2022-07-23T03:43:51;4.72;;;1.88;;
66523;SDS011;53350;52.210;5.160;2022-07-23T03:46:18;9.65;;;1.48;;
66523;SDS011;53350;52.210;5.160;2022-07-23T03:48:44;4.20;;;1.80;;
66523;SDS011;53350;52.210;5.160;2022-07-23T03:51:10;2.83;;;1.63;;
66523;SDS011;53350;52.210;5.160;2022-07-23T03:53:37;3.47;;;1.65;;
66523;SDS011;53350;52.210;5.160;2022-07-23T03:56:05;6.22;;;2.20;;
66523;SDS011;53350;52.210;5.160;2022-07-23T04:00:58;4.13;;;2.03;;
66523;SDS011;53350;52.210;5.160;2022-07-23T04:03:24;4.15;;;1.50;;
66523;SDS011;53350;52.210;5.160;2022-07-23T04:05:51;2.83;;;1.55;;
66523;SDS011;53350;52.210;5.160;2022-07-23T04:08:17;6.15;;;2.20;;
66523;SDS011;53350;52.210;5.160;2022-07-23T04:10:44;3.78;;;1.80;;
66523;SDS011;53350;52.210;5.160;2022-07-23T04:13:11;2.72;;;1.60;;
66523;SDS011;53350;52.210;5.160;2022-07-23T04:15:38;4.20;;;1.80;;
66523;SDS011;53350;52.210;5.160;2022-07-23T04:18:04;5.25;;;2.17;;
66523;SDS011;53350;52.210;5.160;2022-07-23T04:20:31;6.97;;;2.35;;
66523;SDS011;53350;52.210;5.160;2022-07-23T04:22:57;6.93;;;2.08;;
66523;SDS011;53350;52.210;5.160;2022-07-23T04:25:24;6.80;;;1.77;;
66523;SDS011;53350;52.210;5.160;2022-07-23T04:27:50;5.45;;;2.50;;
66523;SDS011;53350;52.210;5.160;2022-07-23T04:30:18;5.63;;;1.77;;
66523;SDS011;53350;52.210;5.160;2022-07-23T04:32:44;4.90;;;1.95;;
66523;SDS011;53350;52.210;5.160;2022-07-23T04:35:11;5.68;;;2.20;;
66523;SDS011;53350;52.210;5.160;2022-07-23T04:37:37;5.72;;;2.10;;
66523;SDS011;53350;52.210;5.160;2022-07-23T04:40:04;5.78;;;2.30;;
66523;SDS011;53350;52.210;5.160;2022-07-23T04:42:31;3.03;;;1.70;;
66523;SDS011;53350;52.210;5.160;2022-07-23T04:44:58;4.70;;;1.75;;
66523;SDS011;53350;52.210;5.160;2022-07-23T04:47:25;3.50;;;1.60;;
66523;SDS011;53350;52.210;5.160;2022-07-23T04:49:52;3.05;;;1.50;;
66523;SDS011;53350;52.210;5.160;2022-07-23T04:52:18;4.10;;;1.60;;
66523;SDS011;53350;52.210;5.160;2022-07-23T04:54:45;4.88;;;1.80;;
66523;SDS011;53350;52.210;5.160;2022-07-23T04:57:11;6.47;;;1.75;;
66523;SDS011;53350;52.210;5.160;2022-07-23T04:59:37;4.95;;;1.60;;
66523;SDS011;53350;52.210;5.160;2022-07-23T05:02:04;3.28;;;1.70;;
66523;SDS011;53350;52.210;5.160;2022-07-23T05:04:32;5.85;;;1.70;;
66523;SDS011;53350;52.210;5.160;2022-07-23T05:06:58;2.95;;;1.60;;
66523;SDS011;53350;52.210;5.160;2022-07-23T05:09:25;3.65;;;1.30;;
66523;SDS011;53350;52.210;5.160;2022-07-23T05:11:51;2.13;;;1.20;;
66523;SDS011;53350;52.210;5.160;2022-07-23T05:14:18;3.50;;;1.52;;
66523;SDS011;53350;52.210;5.160;2022-07-23T05:16:44;3.78;;;1.70;;
66523;SDS011;53350;52.210;5.160;2022-07-23T05:19:11;7.20;;;1.55;;
66523;SDS011;53350;52.210;5.160;2022-07-23T05:21:38;4.18;;;1.67;;
66523;SDS011;53350;52.210;5.160;2022-07-23T05:24:05;3.80;;;1.90;;
66523;SDS011;53350;52.210;5.160;2022-07-23T05:26:32;5.20;;;1.70;;
66523;SDS011;53350;52.210;5.160;2022-07-23T05:28:59;5.10;;;1.60;;
66523;SDS011;53350;52.210;5.160;2022-07-23T05:31:25;4.78;;;1.70;;
66523;SDS011;53350;52.210;5.160;2022-07-23T05:33:52;6.35;;;1.50;;
66523;SDS011;53350;52.210;5.160;2022-07-23T05:36:18;4.38;;;1.70;;
66523;SDS011;53350;52.210;5.160;2022-07-23T05:38:46;5.38;;;1.38;;
66523;SDS011;53350;52.210;5.160;2022-07-23T05:41:12;6.70;;;1.70;;
66523;SDS011;53350;52.210;5.160;2022-07-23T05:43:38;4.90;;;1.52;;
66523;SDS011;53350;52.210;5.160;2022-07-23T05:46:05;7.00;;;1.33;;
66523;SDS011;53350;52.210;5.160;2022-07-23T05:48:31;3.58;;;1.30;;
66523;SDS011;53350;52.210;5.160;2022-07-23T05:50:58;6.40;;;2.10;;
66523;SDS011;53350;52.210;5.160;2022-07-23T05:53:25;6.65;;;1.50;;
66523;SDS011;53350;52.210;5.160;2022-07-23T05:55:53;5.30;;;1.27;;
66523;SDS011;53350;52.210;5.160;2022-07-23T05:58:19;7.35;;;1.48;;
66523;SDS011;53350;52.210;5.160;2022-07-23T06:00:45;5.40;;;1.40;;
66523;SDS011;53350;52.210;5.160;2022-07-23T06:03:12;6.00;;;1.48;;
66523;SDS011;53350;52.210;5.160;2022-07-23T06:05:38;4.10;;;1.42;;
66523;SDS011;53350;52.210;5.160;2022-07-23T06:08:05;4.47;;;1.60;;
66523;SDS011;53350;52.210;5.160;2022-07-23T06:10:31;5.05;;;1.45;;
66523;SDS011;53350;52.210;5.160;2022-07-23T06:12:59;4.38;;;1.50;;
66523;SDS011;53350;52.210;5.160;2022-07-23T06:15:25;4.47;;;1.25;;
66523;SDS011;53350;52.210;5.160;2022-07-23T06:17:52;3.10;;;1.30;;
66523;SDS011;53350;52.210;5.160;2022-07-23T06:20:18;7.75;;;1.80;;
66523;SDS011;53350;52.210;5.160;2022-07-23T06:22:45;7.22;;;1.50;;
66523;SDS011;53350;52.210;5.160;2022-07-23T06:25:11;5.85;;;1.42;;
66523;SDS011;53350;52.210;5.160;2022-07-23T06:27:38;8.35;;;1.27;;
66523;SDS011;53350;52.210;5.160;2022-07-23T06:30:07;5.80;;;1.27;;
66523;SDS011;53350;52.210;5.160;2022-07-23T06:32:35;4.88;;;1.30;;
66523;SDS011;53350;52.210;5.160;2022-07-23T06:35:01;6.32;;;1.38;;
66523;SDS011;53350;52.210;5.160;2022-07-23T06:37:28;3.13;;;1.30;;
66523;SDS011;53350;52.210;5.160;2022-07-23T06:39:54;4.90;;;1.23;;
66523;SDS011;53350;52.210;5.160;2022-07-23T06:42:21;3.70;;;1.20;;
66523;SDS011;53350;52.210;5.160;2022-07-23T06:44:47;5.43;;;1.25;;
66523;SDS011;53350;52.210;5.160;2022-07-23T06:47:15;3.95;;;1.10;;
66523;SDS011;53350;52.210;5.160;2022-07-23T06:49:41;3.90;;;1.30;;
66523;SDS011;53350;52.210;5.160;2022-07-23T06:52:08;4.45;;;1.10;;
66523;SDS011;53350;52.210;5.160;2022-07-23T06:54:34;3.75;;;1.25;;
66523;SDS011;53350;52.210;5.160;2022-07-23T06:57:01;4.88;;;1.23;;
66523;SDS011;53350;52.210;5.160;2022-07-23T06:59:27;2.38;;;1.20;;
66523;SDS011;53350;52.210;5.160;2022-07-23T07:01:54;5.68;;;1.40;;
66523;SDS011;53350;52.210;5.160;2022-07-23T07:04:21;3.88;;;1.10;;
66523;SDS011;53350;52.210;5.160;2022-07-23T07:06:48;4.60;;;1.05;;
66523;SDS011;53350;52.210;5.160;2022-07-23T07:09:14;4.65;;;1.10;;
66523;SDS011;53350;52.210;5.160;2022-07-23T07:11:41;3.55;;;1.08;;
66523;SDS011;53350;52.210;5.160;2022-07-23T07:14:07;7.05;;;1.30;;
66523;SDS011;53350;52.210;5.160;2022-07-23T07:16:34;5.45;;;1.10;;
66523;SDS011;53350;52.210;5.160;2022-07-23T07:19:00;3.78;;;1.17;;
66523;SDS011;53350;52.210;5.160;2022-07-23T07:21:28;3.55;;;1.08;;
66523;SDS011;53350;52.210;5.160;2022-07-23T07:23:54;3.65;;;1.00;;
66523;SDS011;53350;52.210;5.160;2022-07-23T07:26:21;6.53;;;1.30;;
66523;SDS011;53350;52.210;5.160;2022-07-23T07:28:47;4.55;;;1.10;;
66523;SDS011;53350;52.210;5.160;2022-07-23T07:31:14;3.70;;;1.30;;
66523;SDS011;53350;52.210;5.160;2022-07-23T07:33:40;3.70;;;1.20;;
66523;SDS011;53350;52.210;5.160;2022-07-23T07:36:07;4.20;;;1.20;;
66523;SDS011;53350;52.210;5.160;2022-07-23T07:38:34;2.92;;;1.20;;
66523;SDS011;53350;52.210;5.160;2022-07-23T07:41:01;3.92;;;1.20;;
66523;SDS011;53350;52.210;5.160;2022-07-23T07:43:28;6.90;;;1.58;;
66523;SDS011;53350;52.210;5.160;2022-07-23T07:45:54;5.28;;;1.42;;
66523;SDS011;53350;52.210;5.160;2022-07-23T07:48:21;3.28;;;1.27;;
66523;SDS011;53350;52.210;5.160;2022-07-23T07:50:47;5.15;;;1.30;;
66523;SDS011;53350;52.210;5.160;2022-07-23T07:53:13;5.28;;;1.00;;
66523;SDS011;53350;52.210;5.160;2022-07-23T07:55:41;6.35;;;1.23;;
66523;SDS011;53350;52.210;5.160;2022-07-23T07:58:07;6.03;;;1.20;;
66523;SDS011;53350;52.210;5.160;2022-07-23T08:00:34;3.90;;;1.00;;
66523;SDS011;53350;52.210;5.160;2022-07-23T08:03:00;1.77;;;1.00;;
66523;SDS011;53350;52.210;5.160;2022-07-23T08:05:27;7.32;;;1.65;;
66523;SDS011;53350;52.210;5.160;2022-07-23T08:07:55;2.63;;;0.93;;
66523;SDS011;53350;52.210;5.160;2022-07-23T08:10:23;2.25;;;0.90;;
66523;SDS011;53350;52.210;5.160;2022-07-23T08:12:51;3.25;;;1.20;;
66523;SDS011;53350;52.210;5.160;2022-07-23T08:15:21;2.88;;;1.15;;
66523;SDS011;53350;52.210;5.160;2022-07-23T08:17:49;2.75;;;1.10;;
66523;SDS011;53350;52.210;5.160;2022-07-23T08:20:16;4.07;;;1.00;;
66523;SDS011;53350;52.210;5.160;2022-07-23T08:22:45;1.85;;;1.08;;
66523;SDS011;53350;52.210;5.160;2022-07-23T08:25:13;3.08;;;1.00;;
66523;SDS011;53350;52.210;5.160;2022-07-23T08:27:40;3.60;;;1.27;;
66523;SDS011;53350;52.210;5.160;2022-07-23T08:30:09;3.25;;;1.10;;
66523;SDS011;53350;52.210;5.160;2022-07-23T08:32:51;2.88;;;1.10;;
66523;SDS011;53350;52.210;5.160;2022-07-23T08:35:23;3.28;;;1.13;;
66523;SDS011;53350;52.210;5.160;2022-07-23T08:37:51;5.63;;;1.23;;
66523;SDS011;53350;52.210;5.160;2022-07-23T08:40:18;3.97;;;1.20;;
66523;SDS011;53350;52.210;5.160;2022-07-23T08:42:45;2.55;;;1.17;;
66523;SDS011;53350;52.210;5.160;2022-07-23T08:45:17;4.95;;;1.30;;
66523;SDS011;53350;52.210;5.160;2022-07-23T08:47:45;2.97;;;1.15;;
66523;SDS011;53350;52.210;5.160;2022-07-23T08:50:15;3.75;;;1.17;;
66523;SDS011;53350;52.210;5.160;2022-07-23T08:52:41;6.07;;;1.30;;
66523;SDS011;53350;52.210;5.160;2022-07-23T08:55:08;2.58;;;1.08;;
66523;SDS011;53350;52.210;5.160;2022-07-23T08:57:35;9.07;;;1.92;;
66523;SDS011;53350;52.210;5.160;2022-07-23T09:00:02;3.22;;;1.00;;
66523;SDS011;53350;52.210;5.160;2022-07-23T09:02:31;4.80;;;1.08;;
66523;SDS011;53350;52.210;5.160;2022-07-23T09:05:04;3.45;;;1.13;;
66523;SDS011;53350;52.210;5.160;2022-07-23T09:07:31;2.75;;;1.10;;
66523;SDS011;53350;52.210;5.160;2022-07-23T09:10:04;4.35;;;1.00;;
66523;SDS011;53350;52.210;5.160;2022-07-23T09:12:33;3.22;;;1.10;;
66523;SDS011;53350;52.210;5.160;2022-07-23T09:15:03;4.45;;;1.05;;
66523;SDS011;53350;52.210;5.160;2022-07-23T09:17:36;5.03;;;1.25;;
66523;SDS011;53350;52.210;5.160;2022-07-23T09:20:10;3.58;;;1.17;;
66523;SDS011;53350;52.210;5.160;2022-07-23T09:22:38;3.35;;;1.00;;
66523;SDS011;53350;52.210;5.160;2022-07-23T09:25:08;4.70;;;1.20;;
66523;SDS011;53350;52.210;5.160;2022-07-23T09:27:50;1.67;;;0.98;;
66523;SDS011;53350;52.210;5.160;2022-07-23T09:30:18;2.10;;;1.05;;
66523;SDS011;53350;52.210;5.160;2022-07-23T09:35:45;4.32;;;1.30;;
66523;SDS011;53350;52.210;5.160;2022-07-23T09:38:13;3.70;;;1.30;;
66523;SDS011;53350;52.210;5.160;2022-07-23T09:40:40;3.60;;;1.30;;
66523;SDS011;53350;52.210;5.160;2022-07-23T09:43:07;2.55;;;1.20;;
66523;SDS011;53350;52.210;5.160;2022-07-23T09:45:33;3.28;;;1.40;;
66523;SDS011;53350;52.210;5.160;2022-07-23T09:48:14;3.30;;;1.35;;
66523;SDS011;53350;52.210;5.160;2022-07-23T09:50:41;3.20;;;1.20;;
66523;SDS011;53350;52.210;5.160;2022-07-23T09:53:09;3.70;;;1.33;;
66523;SDS011;53350;52.210;5.160;2022-07-23T09:58:04;3.03;;;1.15;;
66523;SDS011;53350;52.210;5.160;2022-07-23T10:00:33;3.63;;;1.10;;
66523;SDS011;53350;52.210;5.160;2022-07-23T10:03:00;1.95;;;1.00;;
66523;SDS011;53350;52.210;5.160;2022-07-23T10:05:29;4.80;;;1.23;;
66523;SDS011;53350;52.210;5.160;2022-07-23T10:07:56;1.92;;;1.15;;
66523;SDS011;53350;52.210;5.160;2022-07-23T10:10:25;3.80;;;1.08;;
66523;SDS011;53350;52.210;5.160;2022-07-23T10:12:53;2.63;;;1.10;;
66523;SDS011;53350;52.210;5.160;2022-07-23T10:15:38;2.78;;;1.30;;
66523;SDS011;53350;52.210;5.160;2022-07-23T10:18:06;4.88;;;1.33;;
66523;SDS011;53350;52.210;5.160;2022-07-23T10:20:34;4.03;;;1.30;;
66523;SDS011;53350;52.210;5.160;2022-07-23T10:23:02;3.60;;;1.40;;
66523;SDS011;53350;52.210;5.160;2022-07-23T10:25:37;1.83;;;1.00;;
66523;SDS011;53350;52.210;5.160;2022-07-23T10:28:12;2.72;;;1.20;;
66523;SDS011;53350;52.210;5.160;2022-07-23T10:30:51;3.50;;;1.20;;
66523;SDS011;53350;52.210;5.160;2022-07-23T10:33:30;4.28;;;1.17;;
66523;SDS011;53350;52.210;5.160;2022-07-23T10:36:07;3.40;;;1.25;;
66523;SDS011;53350;52.210;5.160;2022-07-23T10:38:43;3.15;;;1.20;;
66523;SDS011;53350;52.210;5.160;2022-07-23T10:41:19;5.25;;;1.38;;
66523;SDS011;53350;52.210;5.160;2022-07-23T10:44:05;4.00;;;1.50;;
66523;SDS011;53350;52.210;5.160;2022-07-23T10:46:32;4.30;;;1.17;;
66523;SDS011;53350;52.210;5.160;2022-07-23T10:49:25;3.28;;;1.35;;
66523;SDS011;53350;52.210;5.160;2022-07-23T10:54:47;2.30;;;1.27;;
66523;SDS011;53350;52.210;5.160;2022-07-23T10:57:16;2.33;;;1.20;;
66523;SDS011;53350;52.210;5.160;2022-07-23T11:02:56;2.80;;;1.15;;
66523;SDS011;53350;52.210;5.160;2022-07-23T11:05:24;1.85;;;1.20;;
66523;SDS011;53350;52.210;5.160;2022-07-23T11:10:47;2.90;;;1.30;;
66523;SDS011;53350;52.210;5.160;2022-07-23T11:13:25;3.60;;;1.38;;
66523;SDS011;53350;52.210;5.160;2022-07-23T11:16:05;2.85;;;1.13;;
66523;SDS011;53350;52.210;5.160;2022-07-23T11:18:52;4.55;;;1.20;;
66523;SDS011;53350;52.210;5.160;2022-07-23T11:24:08;3.13;;;1.50;;
66523;SDS011;53350;52.210;5.160;2022-07-23T11:32:30;7.25;;;1.77;;
66523;SDS011;53350;52.210;5.160;2022-07-23T11:35:00;4.00;;;1.60;;
66523;SDS011;53350;52.210;5.160;2022-07-23T11:37:28;3.70;;;1.57;;
66523;SDS011;53350;52.210;5.160;2022-07-23T11:39:58;4.50;;;1.27;;
66523;SDS011;53350;52.210;5.160;2022-07-23T11:42:25;4.70;;;1.50;;
66523;SDS011;53350;52.210;5.160;2022-07-23T11:44:52;4.20;;;1.60;;
66523;SDS011;53350;52.210;5.160;2022-07-23T11:47:21;3.10;;;1.30;;
66523;SDS011;53350;52.210;5.160;2022-07-23T11:49:51;4.85;;;1.40;;
66523;SDS011;53350;52.210;5.160;2022-07-23T11:52:18;5.15;;;1.52;;
66523;SDS011;53350;52.210;5.160;2022-07-23T11:54:46;3.65;;;1.40;;
66523;SDS011;53350;52.210;5.160;2022-07-23T11:57:18;4.72;;;1.45;;
66523;SDS011;53350;52.210;5.160;2022-07-23T11:59:46;4.07;;;1.67;;
66523;SDS011;53350;52.210;5.160;2022-07-23T12:02:14;3.15;;;1.30;;
66523;SDS011;53350;52.210;5.160;2022-07-23T12:04:40;3.35;;;1.50;;
66523;SDS011;53350;52.210;5.160;2022-07-23T12:07:24;2.53;;;1.23;;
66523;SDS011;53350;52.210;5.160;2022-07-23T12:09:52;3.63;;;1.52;;
66523;SDS011;53350;52.210;5.160;2022-07-23T12:12:20;3.03;;;1.63;;
66523;SDS011;53350;52.210;5.160;2022-07-23T12:14:48;3.97;;;1.73;;
66523;SDS011;53350;52.210;5.160;2022-07-23T12:17:16;2.90;;;1.65;;
66523;SDS011;53350;52.210;5.160;2022-07-23T12:19:43;3.70;;;1.63;;
66523;SDS011;53350;52.210;5.160;2022-07-23T12:22:10;4.60;;;1.67;;
66523;SDS011;53350;52.210;5.160;2022-07-23T12:24:52;3.50;;;1.50;;
66523;SDS011;53350;52.210;5.160;2022-07-23T12:27:21;4.47;;;1.73;;
66523;SDS011;53350;52.210;5.160;2022-07-23T12:29:47;4.13;;;1.58;;
66523;SDS011;53350;52.210;5.160;2022-07-23T12:32:17;2.85;;;1.65;;
66523;SDS011;53350;52.210;5.160;2022-07-23T12:34:45;2.25;;;1.48;;
66523;SDS011;53350;52.210;5.160;2022-07-23T12:37:25;3.97;;;1.83;;
66523;SDS011;53350;52.210;5.160;2022-07-23T12:39:52;5.28;;;1.90;;
66523;SDS011;53350;52.210;5.160;2022-07-23T12:42:20;4.03;;;2.05;;
66523;SDS011;53350;52.210;5.160;2022-07-23T12:45:06;4.93;;;2.10;;
66523;SDS011;53350;52.210;5.160;2022-07-23T12:50:31;3.22;;;1.65;;
66523;SDS011;53350;52.210;5.160;2022-07-23T12:53:06;3.08;;;1.85;;
66523;SDS011;53350;52.210;5.160;2022-07-23T12:55:35;4.18;;;1.90;;
66523;SDS011;53350;52.210;5.160;2022-07-23T12:58:05;4.72;;;2.00;;
66523;SDS011;53350;52.210;5.160;2022-07-23T13:00:48;5.00;;;1.90;;
66523;SDS011;53350;52.210;5.160;2022-07-23T13:03:22;3.20;;;1.60;;
66523;SDS011;53350;52.210;5.160;2022-07-23T13:05:50;4.15;;;2.10;;
66523;SDS011;53350;52.210;5.160;2022-07-23T13:08:17;4.88;;;1.92;;
66523;SDS011;53350;52.210;5.160;2022-07-23T13:10:43;4.25;;;1.90;;
66523;SDS011;53350;52.210;5.160;2022-07-23T13:13:13;5.10;;;2.20;;
66523;SDS011;53350;52.210;5.160;2022-07-23T13:15:41;4.28;;;1.92;;
66523;SDS011;53350;52.210;5.160;2022-07-23T13:18:07;6.93;;;2.40;;
66523;SDS011;53350;52.210;5.160;2022-07-23T13:20:34;3.22;;;2.00;;
66523;SDS011;53350;52.210;5.160;2022-07-23T13:23:01;3.95;;;2.20;;
66523;SDS011;53350;52.210;5.160;2022-07-23T13:25:28;6.30;;;2.30;;
66523;SDS011;53350;52.210;5.160;2022-07-23T13:27:54;4.45;;;1.90;;
66523;SDS011;53350;52.210;5.160;2022-07-23T13:30:22;5.78;;;1.95;;
66523;SDS011;53350;52.210;5.160;2022-07-23T13:32:48;3.53;;;2.03;;
66523;SDS011;53350;52.210;5.160;2022-07-23T13:35:15;6.07;;;2.20;;
66523;SDS011;53350;52.210;5.160;2022-07-23T13:37:41;4.22;;;2.17;;
66523;SDS011;53350;52.210;5.160;2022-07-23T13:40:08;7.60;;;2.55;;
66523;SDS011;53350;52.210;5.160;2022-07-23T13:42:35;10.32;;;2.45;;
66523;SDS011;53350;52.210;5.160;2022-07-23T13:45:02;5.03;;;2.13;;
66523;SDS011;53350;52.210;5.160;2022-07-23T13:47:30;6.43;;;2.10;;
66523;SDS011;53350;52.210;5.160;2022-07-23T13:49:57;4.10;;;2.20;;
66523;SDS011;53350;52.210;5.160;2022-07-23T13:52:24;5.07;;;1.90;;
66523;SDS011;53350;52.210;5.160;2022-07-23T13:54:50;4.72;;;2.20;;
66523;SDS011;53350;52.210;5.160;2022-07-23T13:57:17;4.55;;;2.58;;
66523;SDS011;53350;52.210;5.160;2022-07-23T13:59:43;4.35;;;1.98;;
66523;SDS011;53350;52.210;5.160;2022-07-23T14:02:10;5.78;;;2.03;;
66523;SDS011;53350;52.210;5.160;2022-07-23T14:04:44;3.97;;;2.13;;
66523;SDS011;53350;52.210;5.160;2022-07-23T14:07:10;5.55;;;2.10;;
66523;SDS011;53350;52.210;5.160;2022-07-23T14:09:37;5.72;;;2.20;;
66523;SDS011;53350;52.210;5.160;2022-07-23T14:12:04;6.45;;;2.40;;
66523;SDS011;53350;52.210;5.160;2022-07-23T14:14:31;7.00;;;1.90;;
66523;SDS011;53350;52.210;5.160;2022-07-23T14:16:57;6.03;;;1.85;;
66523;SDS011;53350;52.210;5.160;2022-07-23T14:19:24;4.25;;;1.88;;
66523;SDS011;53350;52.210;5.160;2022-07-23T14:21:52;5.50;;;2.05;;
66523;SDS011;53350;52.210;5.160;2022-07-23T14:24:18;4.88;;;2.30;;
66523;SDS011;53350;52.210;5.160;2022-07-23T14:26:45;3.47;;;2.13;;
66523;SDS011;53350;52.210;5.160;2022-07-23T14:29:12;3.63;;;2.00;;
66523;SDS011;53350;52.210;5.160;2022-07-23T14:31:39;5.32;;;2.13;;
66523;SDS011;53350;52.210;5.160;2022-07-23T14:34:05;3.83;;;1.95;;
66523;SDS011;53350;52.210;5.160;2022-07-23T14:36:32;5.65;;;2.42;;
66523;SDS011;53350;52.210;5.160;2022-07-23T14:39:00;6.60;;;2.33;;
66523;SDS011;53350;52.210;5.160;2022-07-23T14:41:27;5.28;;;2.28;;
66523;SDS011;53350;52.210;5.160;2022-07-23T14:43:53;4.68;;;2.40;;
66523;SDS011;53350;52.210;5.160;2022-07-23T14:46:19;8.65;;;2.92;;
66523;SDS011;53350;52.210;5.160;2022-07-23T14:48:46;6.80;;;2.42;;
66523;SDS011;53350;52.210;5.160;2022-07-23T14:51:12;5.28;;;2.08;;
66523;SDS011;53350;52.210;5.160;2022-07-23T14:53:39;6.03;;;2.45;;
66523;SDS011;53350;52.210;5.160;2022-07-23T14:56:07;5.22;;;2.40;;
66523;SDS011;53350;52.210;5.160;2022-07-23T15:01:00;7.25;;;3.05;;
66523;SDS011;53350;52.210;5.160;2022-07-23T15:03:26;5.78;;;2.47;;
66523;SDS011;53350;52.210;5.160;2022-07-23T15:05:52;6.80;;;2.63;;
66523;SDS011;53350;52.210;5.160;2022-07-23T15:08:19;4.95;;;2.78;;
66523;SDS011;53350;52.210;5.160;2022-07-23T15:10:45;3.67;;;2.42;;
66523;SDS011;53350;52.210;5.160;2022-07-23T15:13:13;7.00;;;2.47;;
66523;SDS011;53350;52.210;5.160;2022-07-23T15:15:40;7.40;;;2.47;;
66523;SDS011;53350;52.210;5.160;2022-07-23T15:18:06;5.22;;;2.45;;
66523;SDS011;53350;52.210;5.160;2022-07-23T15:20:33;3.03;;;1.90;;
66523;SDS011;53350;52.210;5.160;2022-07-23T15:23:00;6.60;;;2.05;;
66523;SDS011;53350;52.210;5.160;2022-07-23T15:25:26;5.68;;;2.38;;
66523;SDS011;53350;52.210;5.160;2022-07-23T15:27:52;5.28;;;2.55;;
66523;SDS011;53350;52.210;5.160;2022-07-23T15:30:20;4.95;;;2.75;;
66523;SDS011;53350;52.210;5.160;2022-07-23T15:32:47;6.65;;;2.78;;
66523;SDS011;53350;52.210;5.160;2022-07-23T15:35:13;5.97;;;2.75;;